Time;durP1;ratioP1;P1;durP2;ratioP2;P2;SDS_P1;SDS_P2;PMS_P1;PMS_P2;Temp;Humidity;BMP_temperature;BMP_pressure;BME280_temperature;BME280_humidity;BME280_pressure;Samples;Min_cycle;Max_cycle;Signal;HPM_P1;HPM_P2
2022/01/18 00:00:50;;;;;;;;;72.67;55.33;;;;;5.72;75.06;103586.69;5010601;28;45500;-56
2022/01/18 00:03:16;;;;;;;;;71.00;55.00;;;;;5.70;74.96;103577.97;5007074;28;46441;-55
2022/01/18 00:05:44;;;;;;;;;69.33;55.33;;;;;5.69;75.58;103581.44;5004922;28;45499;-54
2022/01/18 00:08:10;;;;;;;;;74.00;57.33;;;;;5.67;75.18;103591.03;5008220;28;45486;-55
2022/01/18 00:10:36;;;;;;;;;71.67;55.00;;;;;5.62;75.02;103585.78;5009510;28;45536;-53
2022/01/18 00:15:39;;;;;;;;;75.00;57.00;;;;;5.63;74.78;103576.19;5008296;28;46173;-57
2022/01/18 00:18:13;;;;;;;;;68.00;53.33;;;;;5.62;75.52;103583.16;5009832;28;45561;-54
2022/01/18 00:21:48;;;;;;;;;74.33;53.67;;;;;5.63;75.07;103582.28;5010485;28;45386;-54
2022/01/18 00:23:35;;;;;;;;;69.00;53.33;;;;;5.61;75.38;103573.56;5015172;28;45671;-54
2022/01/18 00:26:03;;;;;;;;;75.33;55.00;;;;;5.60;74.98;103590.97;5010064;28;45407;-57
2022/01/18 00:28:30;;;;;;;;;72.33;55.00;;;;;5.58;75.41;103597.94;5008197;28;45489;-55
2022/01/18 00:36:08;;;;;;;;;76.67;59.00;;;;;5.55;74.81;103581.38;5009621;28;45536;-56
2022/01/18 00:41:09;;;;;;;;;78.00;54.67;;;;;5.56;74.91;103568.28;5008038;28;45387;-57
2022/01/18 00:43:34;;;;;;;;;70.00;54.00;;;;;5.55;75.58;103569.16;5010325;28;45552;-52
2022/01/18 00:46:00;;;;;;;;;74.00;55.67;;;;;5.53;74.87;103586.59;5007384;28;46401;-51
2022/01/18 00:48:25;;;;;;;;;74.33;56.67;;;;;5.50;74.67;103572.59;5007793;28;45468;-55
2022/01/18 00:50:53;;;;;;;;;79.67;58.33;;;;;5.48;74.87;103569.97;5007709;28;45768;-54
2022/01/18 00:53:20;;;;;;;;;75.33;55.67;;;;;5.47;74.40;103577.81;5011675;28;45549;-56
2022/01/18 00:55:59;;;;;;;;;73.33;57.33;;;;;5.45;74.93;103579.53;5007646;28;45613;-54
2022/01/18 00:58:24;;;;;;;;;82.00;60.00;;;;;5.43;75.30;103571.69;5007395;28;45585;-55
2022/01/18 01:00:51;;;;;;;;;75.67;53.67;;;;;5.39;75.33;103564.69;5008641;28;45615;-52
2022/01/18 01:03:16;;;;;;;;;71.50;51.75;;;;;5.33;75.85;103570.72;5009267;28;45437;-55
2022/01/18 01:05:42;;;;;;;;;68.50;51.75;;;;;5.28;75.03;103569.81;5008036;28;45596;-53
2022/01/18 01:08:07;;;;;;;;;63.00;47.75;;;;;5.24;74.87;103561.94;5008525;28;45695;-57
2022/01/18 01:10:33;;;;;;;;;64.00;51.00;;;;;5.23;74.85;103563.69;5007731;28;46066;-53
2022/01/18 01:12:58;;;;;;;;;51.25;42.50;;;;;5.21;75.39;103569.75;5008890;28;45478;-54
2022/01/18 01:15:26;;;;;;;;;58.50;43.00;;;;;5.22;74.68;103574.13;5008296;28;45427;-54
2022/01/18 01:18:09;;;;;;;;;57.50;45.25;;;;;5.21;75.65;103575.88;5007205;28;45545;-53
2022/01/18 01:35:06;;;;;;;;;47.75;40.00;;;;;5.14;74.80;103566.22;5017773;28;45359;-49
2022/01/18 01:41:40;;;;;;;;;48.75;41.25;;;;;5.15;75.14;103575.81;5012565;28;45969;-54
2022/01/18 01:45:07;;;;;;;;;44.25;35.25;;;;;5.20;74.55;103584.56;5013604;28;45384;-52
2022/01/18 01:47:36;;;;;;;;;38.50;31.00;;;;;5.22;75.16;103566.28;5014139;28;45466;-51
2022/01/18 01:50:15;;;;;;;;;44.00;36.25;;;;;5.23;75.26;103576.75;5009587;28;45226;-55
2022/01/18 01:52:41;;;;;;;;;42.50;36.00;;;;;5.26;75.56;103573.28;5011359;28;45423;-52
2022/01/18 01:55:07;;;;;;;;;46.50;36.75;;;;;5.28;75.23;103567.19;5012955;28;45413;-50
2022/01/18 01:57:32;;;;;;;;;43.00;34.00;;;;;5.28;74.75;103563.72;5012159;28;45330;-50
2022/01/18 01:59:59;;;;;;;;;45.50;32.00;;;;;5.27;74.88;103570.69;5012648;28;45336;-54
2022/01/18 02:02:27;;;;;;;;;45.75;36.50;;;;;5.26;74.70;103565.44;5011272;28;45302;-53
2022/01/18 02:04:52;;;;;;;;;49.25;32.50;;;;;5.24;74.56;103567.19;5010128;28;45222;-57
2022/01/18 02:07:18;;;;;;;;;45.00;37.25;;;;;5.21;74.66;103570.66;5011878;28;45439;-57
2022/01/18 02:09:44;;;;;;;;;35.50;29.50;;;;;5.20;74.59;103570.59;5011179;28;45318;-57
2022/01/18 02:12:11;;;;;;;;;37.00;31.00;;;;;5.20;74.68;103581.94;5015627;28;45487;-50
2022/01/18 02:14:39;;;;;;;;;38.75;25.75;;;;;5.17;74.58;103581.91;5013096;28;45393;-54
2022/01/18 02:22:41;;;;;;;;;30.50;20.00;;;;;5.13;74.95;103580.13;5010511;28;45537;-53
2022/01/18 02:25:07;;;;;;;;;33.50;27.25;;;;;5.13;75.05;103572.28;5014037;28;45396;-50
2022/01/18 02:27:32;;;;;;;;;31.00;24.75;;;;;5.13;75.02;103568.81;5007651;28;45254;-53
2022/01/18 02:29:58;;;;;;;;;28.67;24.00;;;;;5.09;75.57;103572.28;5002629;28;45291;-50
2022/01/18 02:32:23;;;;;;;;;30.25;24.00;;;;;5.09;75.54;103575.75;5002837;28;45301;-50
2022/01/18 02:34:49;;;;;;;;;23.50;17.50;;;;;5.08;75.83;103560.06;5010499;28;45414;-51
2022/01/18 02:37:14;;;;;;;;;32.75;24.50;;;;;5.08;74.79;103566.16;5022610;28;45304;-50
2022/01/18 02:39:42;;;;;;;;;30.25;18.25;;;;;5.12;75.77;103577.50;5014278;28;45218;-53
2022/01/18 02:42:08;;;;;;;;;27.00;22.00;;;;;5.14;74.98;103571.47;5002673;28;45311;-51
2022/01/18 02:44:35;;;;;;;;;31.75;20.00;;;;;5.18;75.82;103556.66;5002735;28;45313;-49
2022/01/18 02:47:01;;;;;;;;;31.25;24.00;;;;;5.20;75.91;103549.72;5012084;28;45407;-53
2022/01/18 02:49:28;;;;;;;;;30.75;22.25;;;;;5.23;74.71;103563.69;5022448;28;45365;-52
2022/01/18 02:51:56;;;;;;;;;30.00;22.75;;;;;5.26;74.82;103568.06;5022316;28;45366;-52
2022/01/18 02:54:21;;;;;;;;;28.75;22.00;;;;;5.30;75.39;103557.66;5022815;28;45335;-48
2022/01/18 02:56:57;;;;;;;;;30.00;24.50;;;;;5.29;75.17;103560.22;5022108;28;45365;-51
2022/01/18 02:59:44;;;;;;;;;23.25;17.00;;;;;5.31;75.01;103558.53;5022174;28;45268;-49
2022/01/18 03:05:06;;;;;;;;;31.50;21.00;;;;;5.37;75.08;103555.06;5022389;28;45531;-49
2022/01/18 03:07:32;;;;;;;;;26.50;18.75;;;;;5.39;75.66;103542.91;5022147;28;47322;-50
2022/01/18 03:09:58;;;;;;;;;21.50;18.00;;;;;5.44;74.91;103538.56;5021954;28;45360;-50
2022/01/18 03:12:24;;;;;;;;;24.50;20.75;;;;;5.46;74.73;103529.03;5022298;28;45397;-52
2022/01/18 03:14:49;;;;;;;;;24.50;21.50;;;;;5.48;74.76;103528.16;5021950;28;45437;-50
2022/01/18 03:17:15;;;;;;;;;28.25;18.25;;;;;5.52;75.10;103524.69;5021900;28;45395;-49
2022/01/18 03:19:40;;;;;;;;;23.25;19.00;;;;;5.52;74.90;103516.84;5015855;28;45403;-49
2022/01/18 03:22:06;;;;;;;;;26.50;19.75;;;;;5.48;74.62;103517.69;5007758;28;45281;-49
2022/01/18 03:24:46;;;;;;;;;22.00;18.25;;;;;5.51;74.68;103514.22;5011015;28;45283;-48
2022/01/18 03:29:57;;;;;;;;;29.75;21.00;;;;;5.47;74.78;103515.94;5013497;28;45413;-50
2022/01/18 03:32:24;;;;;;;;;30.50;23.75;;;;;5.50;74.48;103515.97;5021593;28;45389;-51
2022/01/18 03:34:49;;;;;;;;;39.50;23.00;;;;;5.57;74.62;103509.03;5010455;28;45466;-49
2022/01/18 03:37:15;;;;;;;;;30.25;23.25;;;;;5.57;74.84;103514.25;5001611;28;45322;-52
2022/01/18 03:39:40;;;;;;;;;24.50;21.50;;;;;5.60;75.11;103514.25;5010038;28;45213;-52
2022/01/18 03:42:33;;;;;;;;;27.75;21.50;;;;;5.65;75.21;103501.22;5003886;28;45487;-52
2022/01/18 03:44:55;;;;;;;;;26.75;20.75;;;;;5.60;74.02;103491.59;5001428;28;45247;-52
2022/01/18 03:47:21;;;;;;;;;37.50;21.00;;;;;5.59;74.45;103515.13;5001524;28;46474;-53
2022/01/18 03:49:46;;;;;;;;;32.75;19.00;;;;;5.59;74.21;103508.16;5001491;28;45356;-52
2022/01/18 03:52:12;;;;;;;;;30.75;23.75;;;;;5.58;74.28;103511.66;5000788;28;45441;-53
2022/01/18 03:54:42;;;;;;;;;35.25;23.25;;;;;5.50;74.64;103515.09;5001653;28;45376;-51
2022/01/18 03:57:09;;;;;;;;;34.75;21.50;;;;;5.53;74.44;103520.31;5000190;28;45253;-52
2022/01/18 03:59:35;;;;;;;;;26.25;21.50;;;;;5.55;74.13;103505.53;5001256;28;45394;-51
2022/01/18 04:02:00;;;;;;;;;43.25;26.50;;;;;5.55;74.46;103518.63;5001527;28;45352;-49
2022/01/18 04:04:26;;;;;;;;;27.00;21.25;;;;;5.57;75.20;103509.91;5001660;28;45391;-48
2022/01/18 04:06:51;;;;;;;;;35.75;25.00;;;;;5.63;74.85;103503.84;5001327;28;45475;-51
2022/01/18 04:09:19;;;;;;;;;39.25;27.50;;;;;5.66;75.17;103502.97;5001447;28;45241;-52
2022/01/18 04:11:44;;;;;;;;;41.75;32.50;;;;;5.67;74.61;103510.81;5001502;28;45365;-52
2022/01/18 04:14:10;;;;;;;;;36.50;25.50;;;;;5.69;75.00;103510.81;5001232;28;45400;-50
2022/01/18 04:16:43;;;;;;;;;31.25;26.50;;;;;5.65;74.52;103509.06;5001246;28;46046;-53
2022/01/18 04:25:48;;;;;;;;;28.75;23.25;;;;;5.61;74.40;103513.44;5000726;28;45452;-53
2022/01/18 04:27:39;;;;;;;;;41.25;29.25;;;;;5.57;75.18;103512.53;5021079;28;45398;-51
2022/01/18 04:30:06;;;;;;;;;39.75;31.75;;;;;5.58;75.24;103523.84;5020599;28;45435;-53
2022/01/18 04:32:32;;;;;;;;;42.00;29.00;;;;;5.53;74.77;103507.25;5010969;28;45341;-50
2022/01/18 04:34:57;;;;;;;;;47.25;30.00;;;;;5.51;74.77;103506.38;5001101;28;45636;-51
2022/01/18 04:37:23;;;;;;;;;35.25;24.25;;;;;5.49;74.80;103522.06;5001153;28;45225;-52
2022/01/18 04:39:49;;;;;;;;;32.00;22.75;;;;;5.47;74.50;103523.78;5006813;28;45380;-49
2022/01/18 04:42:35;;;;;;;;;43.75;33.00;;;;;5.43;74.44;103511.56;5001235;28;45218;-52
2022/01/18 04:50:29;;;;;;;;;34.75;25.25;;;;;5.34;74.62;103508.88;5000651;28;45503;-49
2022/01/18 04:52:54;;;;;;;;;33.75;24.00;;;;;5.30;75.26;103505.38;5013959;28;45389;-52
2022/01/18 04:55:20;;;;;;;;;36.75;25.25;;;;;5.28;74.60;103507.09;5001028;28;45306;-48
2022/01/18 04:57:52;;;;;;;;;26.75;21.75;;;;;5.25;74.85;103509.69;5000655;28;45433;-51
2022/01/18 05:00:22;;;;;;;;;31.50;19.75;;;;;5.23;75.11;103507.94;5000557;28;45356;-48
2022/01/18 05:02:47;;;;;;;;;28.25;17.50;;;;;5.24;74.74;103507.06;5002119;28;45244;-52
2022/01/18 05:05:23;;;;;;;;;24.00;16.75;;;;;5.24;74.53;103510.56;5004172;28;45498;-51
2022/01/18 05:07:49;;;;;;;;;33.75;22.25;;;;;5.25;74.91;103512.31;5003932;28;46236;-51
2022/01/18 05:10:19;;;;;;;;;29.25;23.50;;;;;5.25;75.02;103517.53;5003879;28;45223;-53
2022/01/18 05:12:47;;;;;;;;;30.25;22.00;;;;;5.25;74.86;103508.81;5011265;28;45407;-48
2022/01/18 05:23:19;;;;;;;;;24.00;18.75;;;;;5.17;74.73;103513.97;5023817;28;45335;-49
2022/01/18 05:25:46;;;;;;;;;32.75;22.75;;;;;5.15;75.13;103520.06;5023865;28;45394;-49
2022/01/18 05:28:12;;;;;;;;;37.50;27.25;;;;;5.13;75.49;103512.19;5023482;28;46181;-49
2022/01/18 05:30:38;;;;;;;;;22.75;20.25;;;;;5.15;75.10;103514.84;5023106;28;45451;-50
2022/01/18 05:33:04;;;;;;;;;30.75;19.75;;;;;5.18;74.88;103515.72;5009545;28;45376;-49
2022/01/18 05:35:29;;;;;;;;;34.50;24.00;;;;;5.18;74.90;103502.66;5006412;28;45313;-49
2022/01/18 05:37:55;;;;;;;;;30.25;16.75;;;;;5.22;74.85;103507.06;5002048;28;45435;-51
2022/01/18 05:40:21;;;;;;;;;32.00;23.50;;;;;5.21;75.05;103507.94;5010347;28;45297;-48
2022/01/18 05:42:46;;;;;;;;;34.50;26.75;;;;;5.19;75.42;103493.97;5003517;28;45365;-52
2022/01/18 05:45:12;;;;;;;;;25.50;22.25;;;;;5.16;75.16;103483.50;5003608;28;45301;-49
2022/01/18 05:47:40;;;;;;;;;30.50;24.50;;;;;5.04;74.48;103489.50;5003213;28;45245;-48
2022/01/18 05:50:07;;;;;;;;;32.25;22.00;;;;;4.95;74.61;103484.19;5003346;28;45427;-48
2022/01/18 05:52:33;;;;;;;;;30.25;24.75;;;;;4.94;74.77;103481.56;5003545;28;45348;-50
2022/01/18 05:54:59;;;;;;;;;28.75;18.25;;;;;4.86;75.21;103481.50;5003542;28;45329;-50
2022/01/18 05:57:24;;;;;;;;;24.50;18.25;;;;;4.81;75.18;103495.38;5003152;28;45308;-50
2022/01/18 05:59:50;;;;;;;;;25.25;20.50;;;;;4.85;75.74;103489.34;5003319;28;45565;-52
2022/01/18 06:02:36;;;;;;;;;35.25;22.25;;;;;4.78;74.87;103487.53;5003065;28;45440;-50
2022/01/18 06:07:47;;;;;;;;;24.00;18.75;;;;;4.72;75.56;103493.56;5003005;28;45326;-52
2022/01/18 06:10:13;;;;;;;;;29.50;21.25;;;;;4.69;75.01;103493.56;5002830;28;45193;-50
2022/01/18 06:12:41;;;;;;;;;30.75;21.00;;;;;4.68;74.94;103491.81;5002864;28;45389;-50
2022/01/18 06:15:08;;;;;;;;;23.00;17.50;;;;;4.66;74.75;103497.00;5002069;28;45419;-52
2022/01/18 06:17:33;;;;;;;;;25.75;20.25;;;;;4.72;75.78;103497.06;5002690;28;46236;-48
2022/01/18 06:19:59;;;;;;;;;30.25;24.75;;;;;4.79;74.99;103499.72;5005037;28;45502;-51
2022/01/18 06:22:24;;;;;;;;;33.75;20.25;;;;;4.77;74.66;103502.34;5009980;28;45336;-51
2022/01/18 06:24:50;;;;;;;;;35.00;22.50;;;;;4.78;75.72;103506.69;5022855;28;45645;-52
2022/01/18 06:27:16;;;;;;;;;26.75;22.25;;;;;4.79;75.00;103500.59;5010546;28;46227;-50
2022/01/18 06:29:42;;;;;;;;;27.75;24.00;;;;;4.78;75.35;103509.28;5022577;28;45239;-51
2022/01/18 06:32:08;;;;;;;;;18.00;18.00;;;;;4.78;75.23;103509.28;5015185;28;45241;-52
2022/01/18 06:34:34;;;;;;;;;35.00;23.50;;;;;4.79;75.11;103508.44;5003039;28;45337;-50
2022/01/18 06:37:00;;;;;;;;;23.00;20.75;;;;;4.76;75.12;103505.81;5011577;28;46092;-51
2022/01/18 06:39:25;;;;;;;;;26.00;20.50;;;;;4.76;74.96;103509.28;5008475;28;45688;-52
2022/01/18 06:41:51;;;;;;;;;33.00;24.75;;;;;4.79;74.50;103512.78;5002957;28;45352;-52
2022/01/18 06:44:17;;;;;;;;;37.50;27.75;;;;;4.79;74.88;103511.03;5002180;28;45321;-53
2022/01/18 06:46:43;;;;;;;;;25.00;18.50;;;;;4.78;75.17;103521.47;5002332;28;45549;-53
2022/01/18 06:49:08;;;;;;;;;26.00;21.50;;;;;4.78;74.88;103516.25;5002296;28;45387;-51
2022/01/18 06:51:35;;;;;;;;;24.00;21.50;;;;;4.78;75.13;103516.25;5002408;28;45421;-53
2022/01/18 06:54:01;;;;;;;;;29.00;24.25;;;;;4.79;75.06;103520.63;5008118;28;45346;-51
2022/01/18 06:56:26;;;;;;;;;36.75;30.25;;;;;4.76;74.77;103521.47;5002799;28;45493;-50
2022/01/18 06:58:53;;;;;;;;;29.75;25.50;;;;;4.80;74.80;103514.53;5002307;28;45411;-54
2022/01/18 07:01:20;;;;;;;;;39.50;33.00;;;;;4.79;74.83;103513.66;5002295;28;45308;-53
2022/01/18 07:03:47;;;;;;;;;35.50;28.50;;;;;4.78;75.50;103508.44;5014413;28;45423;-54
2022/01/18 07:06:12;;;;;;;;;34.00;26.00;;;;;4.75;74.83;103522.34;5002408;28;46058;-53
2022/01/18 07:08:38;;;;;;;;;27.50;23.50;;;;;4.69;75.16;103507.47;5001896;28;45387;-53
2022/01/18 07:11:04;;;;;;;;;24.50;22.50;;;;;4.64;74.70;103509.16;5007537;28;45409;-54
2022/01/18 07:13:30;;;;;;;;;32.00;25.75;;;;;4.58;75.28;103508.22;5008956;28;45409;-52
2022/01/18 07:15:55;;;;;;;;;29.75;26.50;;;;;4.56;75.46;103504.72;5009762;28;45951;-54
2022/01/18 07:18:21;;;;;;;;;35.00;26.00;;;;;4.57;75.89;103509.06;5001112;28;45450;-52
2022/01/18 07:20:46;;;;;;;;;26.25;21.75;;;;;4.52;75.58;103498.59;5008089;28;45400;-51
2022/01/18 07:23:13;;;;;;;;;41.50;29.25;;;;;4.51;75.75;103499.47;5021884;28;45317;-52
2022/01/18 07:25:45;;;;;;;;;36.00;28.00;;;;;4.52;75.72;103501.22;5021518;28;45261;-54
2022/01/18 07:28:13;;;;;;;;;31.75;21.00;;;;;4.48;76.07;103500.28;5021249;28;45296;-53
2022/01/18 07:30:39;;;;;;;;;34.50;27.00;;;;;4.50;75.75;103497.69;5021246;28;45211;-54
2022/01/18 07:33:06;;;;;;;;;26.75;18.50;;;;;4.48;75.60;103494.19;5007404;28;45488;-54
2022/01/18 07:35:34;;;;;;;;;27.25;22.25;;;;;4.45;75.46;103492.44;5001649;28;45542;-53
2022/01/18 07:38:04;;;;;;;;;53.00;43.00;;;;;4.46;75.51;103488.97;5001482;28;46525;-54
2022/01/18 07:40:32;;;;;;;;;42.75;30.50;;;;;4.48;75.52;103483.75;5007799;28;45296;-53
2022/01/18 07:43:01;;;;;;;;;32.75;28.00;;;;;4.50;75.01;103492.47;5001816;28;45376;-55
2022/01/18 07:45:28;;;;;;;;;38.25;32.25;;;;;4.50;75.59;103484.66;5001420;28;45281;-55
2022/01/18 07:47:53;;;;;;;;;34.00;30.25;;;;;4.52;74.89;103488.16;5001295;28;45292;-54
2022/01/18 07:50:19;;;;;;;;;37.25;29.00;;;;;4.51;75.35;103486.44;5001377;28;45355;-53
2022/01/18 07:52:45;;;;;;;;;32.00;27.75;;;;;4.51;75.76;103481.22;5001712;28;45357;-56
2022/01/18 07:55:10;;;;;;;;;45.00;33.50;;;;;4.52;75.43;103489.91;5001581;28;45404;-55
2022/01/18 07:57:41;;;;;;;;;54.00;36.25;;;;;4.58;75.93;103485.63;5001316;28;45398;-55
2022/01/18 08:00:08;;;;;;;;;53.75;40.00;;;;;4.65;75.50;103490.03;5001134;28;45355;-54
2022/01/18 08:02:36;;;;;;;;;44.00;33.50;;;;;4.69;75.07;103489.19;5001173;28;45229;-54
2022/01/18 08:05:02;;;;;;;;;45.25;32.00;;;;;4.73;75.01;103475.28;5001065;28;45463;-55
2022/01/18 08:07:27;;;;;;;;;37.00;32.00;;;;;4.73;74.84;103472.69;5001223;28;45398;-56
2022/01/18 08:09:53;;;;;;;;;45.75;34.00;;;;;4.82;75.35;103481.47;5001334;28;45371;-55
2022/01/18 08:12:18;;;;;;;;;44.50;34.25;;;;;4.87;74.74;103471.94;5001145;28;45465;-55
2022/01/18 08:14:46;;;;;;;;;43.50;33.00;;;;;4.91;75.44;103473.72;5000784;28;45618;-55
2022/01/18 08:17:12;;;;;;;;;42.25;33.00;;;;;4.95;75.06;103470.25;5001058;28;45443;-56
2022/01/18 08:19:38;;;;;;;;;38.25;33.25;;;;;5.01;75.00;103480.75;5001134;28;45520;-55
2022/01/18 08:22:04;;;;;;;;;43.00;32.00;;;;;5.07;75.12;103470.38;5017952;28;45444;-55
2022/01/18 08:24:29;;;;;;;;;47.50;34.50;;;;;5.10;74.75;103475.59;5020649;28;46155;-54
2022/01/18 08:26:55;;;;;;;;;45.50;32.25;;;;;5.18;74.86;103478.28;5020542;28;45411;-53
2022/01/18 08:29:21;;;;;;;;;42.00;29.75;;;;;5.22;75.66;103477.44;5020589;28;45468;-55
2022/01/18 08:31:47;;;;;;;;;36.50;27.00;;;;;5.27;74.67;103479.22;5017015;28;45423;-54
2022/01/18 08:34:13;;;;;;;;;37.75;26.25;;;;;5.34;75.27;103490.59;5009604;28;45487;-55
2022/01/18 08:36:40;;;;;;;;;30.00;24.25;;;;;5.43;75.47;103487.16;5003045;28;45332;-54
2022/01/18 08:39:07;;;;;;;;;35.75;28.25;;;;;5.48;75.56;103493.28;5004174;28;45356;-55
2022/01/18 08:41:33;;;;;;;;;40.00;25.50;;;;;5.53;75.55;103486.31;5003534;28;45432;-56
2022/01/18 08:43:59;;;;;;;;;32.00;24.25;;;;;5.54;74.97;103478.53;5000618;28;45377;-56
2022/01/18 08:46:25;;;;;;;;;31.75;27.50;;;;;5.54;75.26;103483.75;5000733;28;45365;-54
2022/01/18 08:48:51;;;;;;;;;38.25;27.50;;;;;5.52;75.41;103488.06;5000935;28;45536;-55
2022/01/18 08:51:17;;;;;;;;;37.25;29.00;;;;;5.52;75.28;103479.34;5000721;28;45555;-56
2022/01/18 08:53:48;;;;;;;;;41.25;34.00;;;;;5.55;74.64;103475.03;5000829;28;46100;-56
2022/01/18 08:56:14;;;;;;;;;33.75;29.50;;;;;5.62;74.55;103485.53;5000841;28;45416;-56
2022/01/18 08:58:40;;;;;;;;;32.25;26.50;;;;;5.67;74.98;103489.03;5010616;28;45538;-56
2022/01/18 09:01:05;;;;;;;;;34.75;26.25;;;;;5.68;74.51;103483.81;5002270;28;45514;-55
2022/01/18 09:03:31;;;;;;;;;29.00;22.25;;;;;5.72;75.11;103476.88;5000477;28;45919;-55
2022/01/18 09:05:57;;;;;;;;;32.50;24.00;;;;;5.77;74.55;103477.78;5000571;28;45419;-55
2022/01/18 09:08:23;;;;;;;;;35.50;26.50;;;;;5.83;74.63;103475.16;5000861;28;45333;-55
2022/01/18 09:10:48;;;;;;;;;32.50;28.00;;;;;5.88;75.07;103483.91;5000559;28;45626;-54
2022/01/18 09:13:15;;;;;;;;;33.50;29.50;;;;;5.96;74.70;103495.31;4999723;28;46087;-54
2022/01/18 09:15:42;;;;;;;;;30.25;26.00;;;;;6.08;74.12;103489.25;5000307;28;45451;-55
2022/01/18 09:18:07;;;;;;;;;34.00;24.25;;;;;6.15;74.12;103481.41;4999217;28;45467;-55
2022/01/18 09:20:33;;;;;;;;;29.75;23.75;;;;;6.24;74.56;103483.22;5004618;28;45506;-55
2022/01/18 09:22:58;;;;;;;;;37.25;28.75;;;;;6.31;74.52;103479.72;5019903;28;45736;-55
2022/01/18 09:25:26;;;;;;;;;33.00;30.75;;;;;6.40;74.05;103490.22;5019920;28;45779;-54
2022/01/18 09:27:53;;;;;;;;;26.50;24.25;;;;;6.45;74.01;103487.59;5006661;28;45609;-55
2022/01/18 09:30:19;;;;;;;;;36.25;25.50;;;;;6.52;74.40;103488.50;5015593;28;45719;-55
2022/01/18 09:32:46;;;;;;;;;27.50;22.50;;;;;6.58;74.13;103483.28;5006168;28;45446;-55
2022/01/18 09:35:14;;;;;;;;;34.75;26.25;;;;;6.58;73.80;103481.53;4997795;28;45681;-55
2022/01/18 09:37:40;;;;;;;;;43.00;28.75;;;;;6.58;73.89;103476.28;4998074;28;45410;-55
2022/01/18 09:40:07;;;;;;;;;32.50;28.00;;;;;6.61;74.11;103484.13;5004542;28;45807;-54
2022/01/18 09:42:35;;;;;;;;;29.25;24.50;;;;;6.66;73.99;103479.78;4997924;28;45456;-55
2022/01/18 09:45:06;;;;;;;;;34.25;30.25;;;;;6.76;74.08;103475.44;4999685;28;45351;-55
2022/01/18 09:47:34;;;;;;;;;32.25;29.00;;;;;6.85;74.47;103466.69;5000417;28;45344;-55
2022/01/18 09:49:59;;;;;;;;;40.25;26.00;;;;;6.94;74.14;103467.56;5001964;28;45300;-55
2022/01/18 09:52:25;;;;;;;;;39.50;28.25;;;;;7.02;73.97;103471.94;5003452;28;45963;-55
2022/01/18 09:54:51;;;;;;;;;37.50;29.75;;;;;7.07;74.09;103483.28;5010186;28;45399;-55
2022/01/18 09:57:17;;;;;;;;;30.50;27.50;;;;;7.11;73.75;103487.63;5023492;28;45242;-53
2022/01/18 09:59:42;;;;;;;;;36.25;27.25;;;;;7.18;73.84;103486.75;5023230;28;45237;-55
2022/01/18 10:02:10;;;;;;;;;33.00;29.00;;;;;7.18;73.76;103477.16;5022832;28;45993;-55
2022/01/18 10:04:44;;;;;;;;;37.50;28.00;;;;;7.21;74.01;103479.78;5023199;28;45497;-53
2022/01/18 10:07:10;;;;;;;;;33.25;27.25;;;;;7.25;73.68;103475.41;5023210;28;45256;-54
2022/01/18 10:09:36;;;;;;;;;42.25;28.00;;;;;7.28;74.00;103468.41;5023304;28;45336;-55
2022/01/18 10:12:13;;;;;;;;;34.25;28.50;;;;;7.30;73.97;103467.53;5022737;28;46299;-55
2022/01/18 10:14:50;;;;;;;;;40.25;32.75;;;;;7.33;74.04;103468.38;5022805;28;45446;-55
2022/01/18 10:17:31;;;;;;;;;39.00;27.50;;;;;7.39;74.28;103464.88;5022937;28;45233;-54
2022/01/18 10:20:05;;;;;;;;;39.50;30.50;;;;;7.44;73.89;103463.13;5016265;28;45332;-55
2022/01/18 10:22:40;;;;;;;;;38.00;28.00;;;;;7.47;74.14;103457.88;5003035;28;45334;-54
2022/01/18 10:25:26;;;;;;;;;40.25;31.00;;;;;7.53;74.19;103461.34;5002466;28;45563;-54
2022/01/18 10:27:53;;;;;;;;;29.25;23.25;;;;;7.56;74.22;103450.84;5003123;28;45270;-55
2022/01/18 10:30:43;;;;;;;;;35.25;28.00;;;;;7.63;74.33;103451.69;5003996;28;45480;-55
2022/01/18 10:33:17;;;;;;;;;28.50;28.50;;;;;7.69;73.96;103441.19;5007680;28;45462;-54
2022/01/18 10:36:11;;;;;;;;;33.50;28.00;;;;;7.78;74.19;103443.78;5002651;28;45332;-55
2022/01/18 10:38:39;;;;;;;;;41.75;35.50;;;;;7.85;74.23;103442.00;5009381;28;45245;-55
2022/01/18 10:41:28;;;;;;;;;36.00;24.75;;;;;7.92;74.10;103432.34;5009098;28;45264;-54
2022/01/18 10:44:10;;;;;;;;;34.25;24.00;;;;;7.98;74.09;103421.78;5002689;28;45385;-55
2022/01/18 10:46:43;;;;;;;;;29.00;23.75;;;;;8.02;73.80;103418.28;5002614;28;45481;-55
2022/01/18 10:49:23;;;;;;;;;32.00;23.00;;;;;8.07;73.83;103414.75;5002613;28;45277;-55
2022/01/18 10:51:57;;;;;;;;;36.75;31.25;;;;;8.11;73.43;103407.72;5002711;28;45271;-54
2022/01/18 10:54:34;;;;;;;;;30.75;24.00;;;;;8.17;73.54;103399.81;5002273;28;46423;-56
2022/01/18 10:57:02;;;;;;;;;31.75;27.50;;;;;8.24;73.31;103393.66;5002314;28;45471;-56
2022/01/18 10:59:29;;;;;;;;;27.00;21.50;;;;;8.28;73.01;103390.09;5002442;28;45275;-54
2022/01/18 11:02:15;;;;;;;;;48.25;26.75;;;;;8.34;73.19;103382.19;5002053;28;45412;-56
2022/01/18 11:04:52;;;;;;;;;30.50;25.00;;;;;8.41;72.94;103375.16;5009793;28;45824;-55
2022/01/18 11:07:23;;;;;;;;;32.00;24.25;;;;;8.45;72.91;103384.75;5022275;28;45397;-55
2022/01/18 11:09:50;;;;;;;;;31.00;24.00;;;;;8.48;72.94;103368.97;5022450;28;45163;-55
2022/01/18 11:12:18;;;;;;;;;36.25;20.75;;;;;8.52;72.33;103359.31;5022312;28;45456;-54
2022/01/18 11:14:46;;;;;;;;;37.75;30.75;;;;;8.57;72.42;103357.53;5021862;28;45462;-56
2022/01/18 11:17:22;;;;;;;;;32.50;25.50;;;;;8.62;72.34;103359.22;5003545;28;45290;-55
2022/01/18 11:19:50;;;;;;;;;36.75;22.00;;;;;8.67;72.28;103357.41;5008523;28;45425;-56
2022/01/18 11:22:16;;;;;;;;;37.50;30.25;;;;;8.74;71.58;103344.22;5018987;28;45455;-56
2022/01/18 11:24:44;;;;;;;;;31.25;20.00;;;;;8.78;71.48;103340.69;5021881;28;45477;-55
2022/01/18 11:27:13;;;;;;;;;36.00;26.25;;;;;8.81;71.19;103336.25;5021708;28;45341;-55
2022/01/18 11:29:44;;;;;;;;;30.50;25.25;;;;;8.88;71.43;103334.44;5021803;28;45208;-56
2022/01/18 11:32:11;;;;;;;;;21.25;18.00;;;;;8.93;71.19;103328.25;5014983;28;45463;-55
2022/01/18 11:34:55;;;;;;;;;18.00;15.25;;;;;8.97;70.61;103329.09;5001815;28;45999;-56
2022/01/18 11:37:36;;;;;;;;;21.75;17.75;;;;;9.01;70.38;103319.41;5009837;28;45264;-56
2022/01/18 11:40:09;;;;;;;;;29.50;19.75;;;;;9.03;69.72;103308.00;5009982;28;45620;-56
2022/01/18 11:42:42;;;;;;;;;23.00;17.75;;;;;9.07;70.03;103307.03;5002003;28;45388;-55
2022/01/18 11:45:26;;;;;;;;;15.50;13.75;;;;;9.14;69.35;103303.47;5008768;28;46240;-54
2022/01/18 11:48:11;;;;;;;;;21.00;15.00;;;;;9.20;68.82;103302.53;5021514;28;45316;-56
2022/01/18 11:50:42;;;;;;;;;24.50;17.75;;;;;9.26;68.70;103302.44;5021261;28;45391;-56
2022/01/18 11:53:28;;;;;;;;;19.00;15.00;;;;;9.32;69.15;103304.13;5021446;28;45265;-56
2022/01/18 11:56:00;;;;;;;;;28.00;18.25;;;;;9.38;68.88;103296.16;5021195;28;46362;-56
2022/01/18 11:58:27;;;;;;;;;20.50;16.25;;;;;9.42;68.02;103301.34;5021110;28;45459;-56
2022/01/18 12:00:59;;;;;;;;;23.00;15.75;;;;;9.48;68.12;103285.50;5021151;28;45377;-56
2022/01/18 12:03:48;;;;;;;;;23.25;18.00;;;;;9.53;68.15;103277.53;5021397;28;45418;-56
2022/01/18 12:06:14;;;;;;;;;21.50;13.50;;;;;9.57;67.48;103268.72;5021063;28;45366;-56
2022/01/18 12:08:45;;;;;;;;;12.25;9.25;;;;;9.58;68.01;103273.06;5021054;28;45257;-56
2022/01/18 12:11:37;;;;;;;;;17.25;16.25;;;;;9.61;67.60;103264.25;5021076;28;45332;-56
2022/01/18 12:14:04;;;;;;;;;24.75;17.50;;;;;9.62;67.83;103258.09;5019550;28;45241;-56
2022/01/18 12:16:30;;;;;;;;;18.50;14.25;;;;;9.66;67.95;103247.50;5020994;28;45442;-56
2022/01/18 12:19:02;;;;;;;;;13.00;12.75;;;;;9.69;67.82;103244.81;5020914;28;45312;-56
2022/01/18 12:21:30;;;;;;;;;16.75;15.75;;;;;9.73;68.17;103254.44;5014340;28;45302;-56
2022/01/18 12:23:58;;;;;;;;;19.75;15.25;;;;;9.77;67.58;103249.97;5021021;28;45562;-56
2022/01/18 12:26:30;;;;;;;;;20.75;14.25;;;;;9.78;67.58;103242.03;5020855;28;45355;-56